This is the latest recevied weather packets stored in our database for station/object SQ9RHX-11. If no packets are shown the sender has not sent any weather packets the latest 10 day(s).
| Time | Temp. | Humidity | Pressure | Rain* | Wind** | Luminosity | Snow |
|---|---|---|---|---|---|---|---|
| 1777662121 | 12.22° C | 48% | 1026 hPa | - | - | - | - |
| 1777660321 | 15° C | 43% | 1025.8 hPa | - | - | - | - |
| 1777658523 | 17.78° C | 40% | 1025.6 hPa | - | - | - | - |
| 1777654923 | 20.56° C | 35% | 1025.4 hPa | - | - | - | - |
| 1777653124 | 21.11° C | 33% | 1025.6 hPa | - | - | - | - |
| 1777651325 | 22.22° C | 32% | 1025.7 hPa | - | - | - | - |
| 1777649526 | 22.78° C | 31% | 1025.8 hPa | - | - | - | - |
| 1777647726 | 22.78° C | 31% | 1025.9 hPa | - | - | - | - |
| 1777645927 | 22.78° C | 31% | 1026.2 hPa | - | - | - | - |
| 1777644127 | 23.33° C | 30% | 1026.3 hPa | - | - | - | - |
| 1777642328 | 26.11° C | 28% | 1026.5 hPa | - | - | - | - |
| 1777640528 | 27.22° C | 28% | 1026.6 hPa | - | - | - | - |
| 1777638728 | 24.44° C | 30% | 1027 hPa | - | - | - | - |
| 1777636928 | 23.33° C | 32% | 1027.5 hPa | - | - | - | - |
| 1777635128 | 22.78° C | 31% | 1027.6 hPa | - | - | - | - |
| 1777633328 | 22.22° C | 32% | 1027.8 hPa | - | - | - | - |
| 1777631529 | 21.67° C | 32% | 1028 hPa | - | - | - | - |
| 1777629730 | 22.22° C | 33% | 1028.2 hPa | - | - | - | - |
| 1777627931 | 21.11° C | 34% | 1028.4 hPa | - | - | - | - |
| 1777626131 | 20° C | 36% | 1028.6 hPa | - | - | - | - |
| 1777624332 | 19.44° C | 38% | 1028.8 hPa | - | - | - | - |
| 1777622534 | 17.78° C | 40% | 1028.7 hPa | - | - | - | - |
| 1777620734 | 17.78° C | 42% | 1028.8 hPa | - | - | - | - |
| 1777618934 | 16.11° C | 45% | 1028.9 hPa | - | - | - | - |
| 1777617134 | 15° C | 49% | 1029.1 hPa | - | - | - | - |
* Rain since midnight (hover to see other rain measurements)
** Current wind speed in m/s (hover to see current wind gust speed)